KLFI/LFI METAR and TAF weather

Enter ICAO airport designator
Station Type Date Time Source
KLFI METAR 2021/06/22 23:41 UTC NOAA

KLFI 222341Z 32008KT 10SM FEW016 OVC036 20/20 A2992 RMK AO2A SLP138 $


Station Type Date Time Source
KLFI Decoded METAR 2021/06/22 23:41 UTC NOAA

Langley Air Force Base, VA, United States (KLFI) 37-05N 076-21W 6M
Jun 22, 2021 - 07:41 PM EDT / 2021.06.22 2341 UTC
Wind: from the NW (320 degrees) at 9 MPH (8 KT):0
Visibility: 10 mile(s):0
Sky conditions: overcast
Temperature: 68 F (20 C)
Dew Point: 68 F (20 C)
Relative Humidity: 100%
Pressure (altimeter): 29.92 in. Hg (1013 hPa)
ob: KLFI 222341Z 32008KT 10SM FEW016 OVC036 20/20 A2992 RMK AO2A SLP138
cycle: 23

Station Type Date Time Source
KLFI TAF 2021/06/22 17:09 UTC NOAA

TAF TAF KLFI 221700Z 2217/2323 24015G20KT 9999 BKN020 OVC040 QNH2971INS
TEMPO 2217/2218 VRB25G35KT 3200 TSRA BKN010CB OVC025
BECMG 2217/2218 33012G18KT 9000 -SHRA BKN020 OVC040 QNH2972INS
TEMPO 2218/2222 VRB25G35KT 3200 TSRA BKN009CB OVC025
BECMG 2302/2303 35012KT 9999 NSW SCT020 BKN040 QNH2995INS
BECMG 2313/2314 03010G15KT 9999 FEW035 SCT050 QNH3011INS TX29/2317Z TN22/2305Z

Example: see airport list